27. Mai 2022

Uhrzeit Code Wetter Temp. Sichtweite Wolkendecke Wind METAR/SPECI
6:43 am
L
64 °F 3 mi 400 ft 210° 210° 5 kt METAR CYMX 271043Z 21005KT 3SM RA BR BKN004 OVC007 18/17 A2978 RMK SF5NS3 SLP085 DENSITY ALT 900FT
6:38 am
I
64 °F 5 mi 600 ft 220° 220° 6 kt METAR CYMX 271038Z 22006KT 180V260 5SM +RA BR OVC006 18/17 A2977 RMK NS8 SLP084 DENSITY ALT 900FT
6:32 am
I
64 °F 5 mi 700 ft 220° 220° 7 kt METAR CYMX 271032Z 22007KT 180V240 5SM RA SCT005 OVC007 18/17 A2978 RMK SF3NS5 SLP085 DENSITY ALT 900FT
6:00 am
I
63 °F 5 mi 900 ft 220° 220° 4 kt METAR CYMX 271000Z 22004KT 180V250 5SM -SHRA BR SCT005 OVC009 17/17 A2978 RMK SF3ST5 CVCTV CLD EMBD SLP086 DENSITY ALT 800FT
5:27 am
M
63 °F 7 mi 1.000 ft 220° 220° 6 kt METAR CYMX 270927Z 22006KT 180V250 7SM -SHRA SCT007 OVC010 17/17 A2978 RMK SF3SC5 CVCTV CLD EMBD SLP086 DENSITY ALT 800FT
5:00 am
M
63 °F 20 mi 1.400 ft 210° 210° 5 kt METAR CYMX 270900Z 21005KT 20SM -SHRA OVC014 17/17 A2978 RMK SC8 CVCTV CLD EMBD SLP086 DENSITY ALT 800FT
4:00 am
M
64 °F 20 mi 2.600 ft 230° 230° 7 - 16 kt METAR CYMX 270800Z 23007G16KT 190V260 20SM -SHRA OVC026 18/16 A2979 RMK SC8 CVCTV CLD EMBD SLP090 DENSITY ALT 900FT
3:00 am
V
68 °F 25 mi 3.100 ft 230° 230° 8 - 17 kt METAR CYMX 270700Z 23008G17KT 200V270 25SM -SHRA OVC031 20/16 A2980 RMK SC8 CVCTV CLD EMBD SLP092 DENSITY ALT 1100FT
2:37 am
V
66 °F 25 mi 3.600 ft 220° 220° 8 - 15 kt METAR CYMX 270637Z 22008G15KT 190V270 25SM -SHRA OVC036 19/16 A2980 RMK SC8 CVCTV CLD EMBD SLP094 DENSITY ALT 1000FT
2:00 am
V
70 °F 25 mi 5.000 ft 220° 220° 7 kt METAR CYMX 270600Z 22007KT 200V260 25SM FEW035 BKN050 OVC060 21/16 A2980 RMK SC1SC4SC3 SLP093 DENSITY ALT 1200FT
1:00 am
V
68 °F 25 mi 7.000 ft 200° 200° 4 kt METAR CYMX 270500Z 20004KT 25SM SCT050 BKN070 BKN100 20/16 A2980 RMK SC4AC1AC2 SLP093 DENSITY ALT 1100FT
12:00 am
V
70 °F 25 mi 5.200 ft 200° 200° 4 kt METAR CYMX 270400Z 20004KT 25SM SCT047 OVC052 21/16 A2980 RMK SC3SC5 SLP095 DENSITY ALT 1200FT

26. Mai 2022

Uhrzeit Code Wetter Temp. Sichtweite Wolkendecke Wind METAR/SPECI
11:00 pm
V
70 °F 25 mi 5.100 ft 200° 200° 4 kt METAR CYMX 270300Z 20004KT 25SM OVC051 21/16 A2981 RMK SC8 SLP098 DENSITY ALT 1200FT
10:00 pm
V
70 °F 25 mi 5.400 ft 200° 200° 4 kt METAR CYMX 270200Z 20004KT 25SM BKN054 21/16 A2983 RMK SC7 SLP103 DENSITY ALT 1200FT
9:00 pm
V
68 °F 25 mi 5.300 ft 200° 200° 3 kt METAR CYMX 270100Z 20003KT 25SM BKN053 20/16 A2983 RMK SC7 SLP104 DENSITY ALT 1100FT
8:00 pm
V
66 °F 30 mi 5.000 ft 180° 180° 2 kt METAR CYMX 270000Z 18002KT 30SM BKN050 BKN250 19/17 A2983 RMK SC6CI1 SLP105 DENSITY ALT 1000FT
7:00 pm
V
66 °F 30 mi 4.900 ft Var Var 2 kt METAR CYMX 262300Z VRB02KT 30SM OVC049 19/17 A2985 RMK SC8 SLP110 DENSITY ALT 1000FT
6:00 pm
V
66 °F 25 mi 4.600 ft Var 000° 0 kt METAR CYMX 262200Z 00000KT 25SM BKN046 BKN090 19/16 A2987 RMK SC5AC2 SLP118 DENSITY ALT 900FT
5:00 pm
V
66 °F 25 mi 4.200 ft Var Var 2 kt METAR CYMX 262100Z VRB02KT 25SM BKN042 19/15 A2988 RMK SC7 SLP122 DENSITY ALT 900FT
4:00 pm
V
64 °F 15 mi 4.400 ft 180° 180° 5 kt METAR CYMX 262000Z CCA 18005KT 15SM -SHRA BKN044 OVC090 18/15 A2992 RMK SC7AC1 CVCTV CLDS EMBD SLP133 DENSITY ALT 800FT
3:43 pm
V
66 °F 10 mi 4.500 ft 160° 160° 5 kt METAR CYMX 261943Z 16005KT 10SM -SHRA BKN045 OVC090 19/14 A2991 RMK SC7AC1 CVCTV CLDS EMBD SLP132 DENSITY ALT 800FT
3:00 pm
V
66 °F 25 mi 4.500 ft 170° 170° 4 kt METAR CYMX 261900Z 17004KT 120V190 25SM BKN045 OVC100 19/13 A2993 RMK SC6AC2 SLP137 DENSITY ALT 900FT
2:00 pm
V
68 °F 25 mi 4.700 ft 160° 160° 3 kt METAR CYMX 261800Z 16003KT 140V200 25SM FEW020 BKN047 OVC100 20/14 A2995 RMK SC1SC5AC2 SLP146 DENSITY ALT 900FT
1:00 pm
V
66 °F 25 mi 5.500 ft 130° 130° 4 kt METAR CYMX 261700Z 13004KT 080V170 25SM FEW020 BKN055 BKN110 19/14 A2998 RMK CU1SC4AC2 SLP156 DENSITY ALT 800FT
12:00 pm
V
64 °F 25 mi 6.000 ft 090° 090° 4 kt METAR CYMX 261600Z 09004KT 060V180 25SM BKN060 BKN110 18/14 A3002 RMK SC5AC2 SLP170 DENSITY ALT 600FT
11:00 am
V
61 °F 25 mi 9.000 ft 100° 100° 5 kt METAR CYMX 261500Z 10005KT 060V150 25SM FEW009 SCT050 BKN090 16/14 A3005 RMK SF1SC3AC4 SF TR SLP179 DENSITY ALT 400FT
10:44 am
V
59 °F 25 mi 8.000 ft Var Var 2 kt METAR CYMX 261444Z VRB02KT 25SM FEW009 SCT055 BKN080 15/14 A3006 RMK SF1SC4AC3 SF TR SLP183 DENSITY ALT 300FT
10:00 am
V
59 °F 25 mi 5.500 ft 100° 100° 3 kt METAR CYMX 261400Z 10003KT 050V150 25SM -SHRA FEW009 BKN055 BKN077 15/14 A3008 RMK SF1SC5AC2 SF TR CVCTV CLDS EMBD SLP190
9:52 am
V
57 °F 15 mi 6.000 ft 110° 110° 4 kt METAR CYMX 261352Z 11004KT 050V120 15SM -SHRA BKN060 OVC080 14/14 A3008 RMK SC6AC2 CVCTV CLDS EMBD SLP191
9:00 am
V
55 °F 25 mi 5.000 ft 050° 050° 4 kt METAR CYMX 261300Z 05004KT 010V090 25SM BKN050 OVC080 13/12 A3011 RMK SC6AC2 SLP198
8:00 am
V
54 °F 10 mi 6.000 ft 060° 060° 3 kt METAR CYMX 261200Z 06003KT 020V100 10SM -RA FEW012 BKN060 OVC080 12/12 A3013 RMK SF1SC5AC2 SLP206
7:00 am
V
54 °F 15 mi 6.000 ft 050° 050° 4 kt METAR CYMX 261100Z 05004KT 350V070 15SM -SHRA FEW012 OVC060 12/10 A3016 RMK SF1SC8 SF TR CVCTV CLDS EMBD SLP218
6:00 am
V
55 °F 15 mi 5.200 ft 030° 030° 4 kt METAR CYMX 261000Z 03004KT 010V080 15SM -SHRA OVC052 13/09 A3017 RMK SC8 CVCTV CLDS EMBD SLP219
5:00 am
V
55 °F 20 mi 6.000 ft 030° 030° 3 kt METAR CYMX 260900Z 03003KT 340V090 20SM -SHRA BKN060 OVC090 13/08 A3016 RMK SC6AC2 CVCTV CLDS EMBD SLP215
4:00 am
V
57 °F 20 mi 9.600 ft 030° 030° 4 kt METAR CYMX 260800Z 03004KT 20SM -RA OVC096 14/09 A3016 RMK AC8 SLP217
3:24 am
V
59 °F 20 mi 9.700 ft 030° 030° 4 kt METAR CYMX 260724Z 03004KT 20SM -RA OVC097 15/07 A3017 RMK AC8 SLP219
3:00 am
V
57 °F 25 mi 8.500 ft 040° 040° 4 kt METAR CYMX 260700Z 04004KT 25SM BKN085 OVC100 14/07 A3017 RMK AC5AC3 SLP221
2:00 am
V
57 °F 25 mi 15.000 ft 010° 010° 3 kt METAR CYMX 260600Z 01003KT 360V060 25SM FEW070 OVC150 14/07 A3018 RMK AC2AS6 SLP223
1:00 am
V
55 °F 25 mi 15.000 ft 070° 070° 3 kt METAR CYMX 260500Z 07003KT 360V110 25SM BKN150 13/08 A3020 RMK AC7 SLP229
12:00 am
V
55 °F 15 mi 15.000 ft Var Var 2 kt METAR CYMX 260400Z VRB02KT 15SM BKN150 13/07 A3022 RMK AC7 SLP238

25. Mai 2022

Uhrzeit Code Wetter Temp. Sichtweite Wolkendecke Wind METAR/SPECI
11:00 pm
V
57 °F 25 mi 15.000 ft 050° 050° 2 kt METAR CYMX 260300Z 05002KT 25SM BKN150 BKN230 14/06 A3023 RMK AC5CI1 SLP240
10:00 pm
V
57 °F 25 mi 15.000 ft Var 000° 0 kt METAR CYMX 260200Z 00000KT 25SM BKN150 BKN220 14/05 A3023 RMK AC5CI1 SLP241
9:00 pm
V
59 °F 25 mi 25.000 ft Var 000° 0 kt METAR CYMX 260100Z 00000KT 25SM SCT160 BKN250 15/05 A3024 RMK AC3CI3 SLP244
8:00 pm
V
61 °F 35 mi 25.000 ft Var 000° 0 kt METAR CYMX 260000Z 00000KT 35SM FEW150 BKN250 16/08 A3024 RMK AC1CS6 SLP244
7:00 pm
V
68 °F 35 mi 25.000 ft Var 000° 0 kt METAR CYMX 252300Z 00000KT 35SM FEW150 BKN250 20/06 A3025 RMK AC2CI5 SLP247 DENSITY ALT 500FT
6:00 pm
V
70 °F 45 mi 24.000 ft Var Var 2 kt METAR CYMX 252200Z VRB02KT 45SM FEW150 BKN240 21/03 A3026 RMK AC2CI5 SLP252 DENSITY ALT 600FT
5:00 pm
V
70 °F 45 mi 25.000 ft 200° 200° 5 kt METAR CYMX 252100Z 20005KT 080V230 45SM BKN250 21/04 A3027 RMK CI7 SLP254 DENSITY ALT 700FT
4:00 pm
V
72 °F 45 mi 25.000 ft 150° 150° 6 kt METAR CYMX 252000Z 15006KT 110V240 45SM BKN250 22/04 A3029 RMK CI7 SLP260 DENSITY ALT 700FT
3:00 pm
V
72 °F 45 mi 25.000 ft Var Var 5 kt METAR CYMX 251900Z VRB05KT 45SM FEW210 BKN250 22/04 A3031 RMK CC1CI5 SLP268 DENSITY ALT 700FT
2:00 pm
V
70 °F 45 mi 25.000 ft 170° 170° 5 kt METAR CYMX 251800Z 17005KT 120V210 45SM FEW210 BKN250 21/02 A3032 RMK CC1CI5 SLP271 DENSITY ALT 600FT
1:00 pm
V
70 °F 45 mi - 100° 100° 3 kt METAR CYMX 251700Z 10003KT 070V200 45SM SCT250 21/03 A3034 RMK CI3 SLP278 DENSITY ALT 500FT
12:00 pm
V
68 °F 45 mi - Var Var 4 kt METAR CYMX 251600Z VRB04KT 45SM FEW250 20/06 A3036 RMK CI2 SLP283 DENSITY ALT 500FT
11:00 am
V
66 °F 45 mi - 120° 120° 5 kt METAR CYMX 251500Z 12005KT 020V140 45SM SCT250 19/05 A3037 RMK CI3 SLP287 DENSITY ALT 400FT
10:00 am
V
64 °F 45 mi - Var Var 2 kt METAR CYMX 251400Z VRB02KT 45SM FEW250 18/04 A3037 RMK CI2 SLP289
9:00 am
V
63 °F 45 mi - 080° 080° 3 kt METAR CYMX 251300Z 08003KT 360V120 45SM SCT250 17/08 A3037 RMK CI3 SLP289
8:00 am
V
55 °F 45 mi - Var 000° 0 kt METAR CYMX 251200Z 00000KT 45SM FEW250 13/08 A3037 RMK CI1 SLP287
7:00 am
V
48 °F 45 mi - Var Var 2 kt METAR CYMX 251100Z VRB02KT 45SM FEW250 09/06 A3036 RMK CI1 SLP285
Ältere Daten

Laden Sie unsere App herunter

Einfacher Zugriff auf das gesamte Flugwetter auf Ihrem Mobiltelefon und Tablet.
Mit vielen Funktionen, die auf der Website nicht verfügbar sind, wie Offline-Unterstützung und eine persönliche Flughafenliste.

Wir und Dritte verfolgen dein Internetverhalten auf unserer Website mit Cookies. Wenn du fortfährst, gehen wir davon aus, dass du mit unserer Cookie-Richtlinie einverstanden bist. Mehr erfahren